sensor_id;sensor_type;location;lat;lon;timestamp;P1;durP1;ratioP1;P2;durP2;ratioP2
27746;SDS011;15138;51.012;4.692;2023-05-31T00:01:30;5.78;;;3.47;;
27746;SDS011;15138;51.012;4.692;2023-05-31T00:03:58;4.15;;;2.70;;
27746;SDS011;15138;51.012;4.692;2023-05-31T00:06:26;5.25;;;2.78;;
27746;SDS011;15138;51.012;4.692;2023-05-31T00:08:55;6.60;;;3.42;;
27746;SDS011;15138;51.012;4.692;2023-05-31T00:11:23;7.25;;;3.08;;
27746;SDS011;15138;51.012;4.692;2023-05-31T00:13:52;5.93;;;2.80;;
27746;SDS011;15138;51.012;4.692;2023-05-31T00:16:21;4.65;;;2.92;;
27746;SDS011;15138;51.012;4.692;2023-05-31T00:18:53;5.47;;;3.28;;
27746;SDS011;15138;51.012;4.692;2023-05-31T00:21:22;3.60;;;2.47;;
27746;SDS011;15138;51.012;4.692;2023-05-31T00:23:50;5.32;;;2.50;;
27746;SDS011;15138;51.012;4.692;2023-05-31T00:26:18;4.43;;;2.70;;
27746;SDS011;15138;51.012;4.692;2023-05-31T00:28:48;4.80;;;2.60;;
27746;SDS011;15138;51.012;4.692;2023-05-31T00:31:16;4.78;;;2.72;;
27746;SDS011;15138;51.012;4.692;2023-05-31T00:33:45;2.53;;;2.03;;
27746;SDS011;15138;51.012;4.692;2023-05-31T00:36:14;4.32;;;3.03;;
27746;SDS011;15138;51.012;4.692;2023-05-31T00:38:42;4.07;;;2.75;;
27746;SDS011;15138;51.012;4.692;2023-05-31T00:41:11;4.90;;;3.22;;
27746;SDS011;15138;51.012;4.692;2023-05-31T00:43:39;4.22;;;3.15;;
27746;SDS011;15138;51.012;4.692;2023-05-31T00:46:08;6.68;;;3.90;;
27746;SDS011;15138;51.012;4.692;2023-05-31T00:48:41;7.35;;;3.70;;
27746;SDS011;15138;51.012;4.692;2023-05-31T00:51:10;3.75;;;2.92;;
27746;SDS011;15138;51.012;4.692;2023-05-31T00:53:40;3.38;;;2.53;;
27746;SDS011;15138;51.012;4.692;2023-05-31T00:56:10;3.63;;;2.10;;
27746;SDS011;15138;51.012;4.692;2023-05-31T00:58:40;4.97;;;3.22;;
27746;SDS011;15138;51.012;4.692;2023-05-31T01:01:08;4.47;;;3.10;;
27746;SDS011;15138;51.012;4.692;2023-05-31T01:03:38;5.43;;;3.80;;
27746;SDS011;15138;51.012;4.692;2023-05-31T01:06:07;4.85;;;3.03;;
27746;SDS011;15138;51.012;4.692;2023-05-31T01:08:36;4.03;;;2.67;;
27746;SDS011;15138;51.012;4.692;2023-05-31T01:11:09;4.78;;;3.28;;
27746;SDS011;15138;51.012;4.692;2023-05-31T01:13:51;7.65;;;4.45;;
27746;SDS011;15138;51.012;4.692;2023-05-31T01:16:31;9.38;;;3.60;;
27746;SDS011;15138;51.012;4.692;2023-05-31T01:19:05;5.70;;;4.00;;
27746;SDS011;15138;51.012;4.692;2023-05-31T01:21:43;4.75;;;2.38;;
27746;SDS011;15138;51.012;4.692;2023-05-31T01:24:24;6.22;;;2.78;;
27746;SDS011;15138;51.012;4.692;2023-05-31T01:26:57;5.28;;;3.42;;
27746;SDS011;15138;51.012;4.692;2023-05-31T01:29:29;5.95;;;3.65;;
27746;SDS011;15138;51.012;4.692;2023-05-31T01:32:01;4.88;;;3.15;;
27746;SDS011;15138;51.012;4.692;2023-05-31T01:34:31;6.32;;;4.03;;
27746;SDS011;15138;51.012;4.692;2023-05-31T01:36:59;5.65;;;3.58;;
27746;SDS011;15138;51.012;4.692;2023-05-31T01:39:27;6.07;;;3.20;;
27746;SDS011;15138;51.012;4.692;2023-05-31T01:41:55;3.97;;;3.10;;
27746;SDS011;15138;51.012;4.692;2023-05-31T01:44:25;7.35;;;3.83;;
27746;SDS011;15138;51.012;4.692;2023-05-31T01:46:54;3.88;;;2.70;;
27746;SDS011;15138;51.012;4.692;2023-05-31T01:49:22;4.93;;;3.17;;
27746;SDS011;15138;51.012;4.692;2023-05-31T01:51:51;6.93;;;2.75;;
27746;SDS011;15138;51.012;4.692;2023-05-31T01:54:19;4.53;;;2.83;;
27746;SDS011;15138;51.012;4.692;2023-05-31T01:56:47;6.97;;;3.10;;
27746;SDS011;15138;51.012;4.692;2023-05-31T01:59:18;3.92;;;2.63;;
27746;SDS011;15138;51.012;4.692;2023-05-31T02:01:46;7.88;;;4.70;;
27746;SDS011;15138;51.012;4.692;2023-05-31T02:04:17;6.68;;;3.22;;
27746;SDS011;15138;51.012;4.692;2023-05-31T02:06:46;4.57;;;3.20;;
27746;SDS011;15138;51.012;4.692;2023-05-31T02:09:14;5.75;;;2.95;;
27746;SDS011;15138;51.012;4.692;2023-05-31T02:11:42;4.55;;;3.97;;
27746;SDS011;15138;51.012;4.692;2023-05-31T02:14:10;6.22;;;3.75;;
27746;SDS011;15138;51.012;4.692;2023-05-31T02:16:39;4.97;;;3.40;;
27746;SDS011;15138;51.012;4.692;2023-05-31T02:19:08;7.22;;;4.05;;
27746;SDS011;15138;51.012;4.692;2023-05-31T02:21:40;3.40;;;2.67;;
27746;SDS011;15138;51.012;4.692;2023-05-31T02:24:08;5.03;;;3.40;;
27746;SDS011;15138;51.012;4.692;2023-05-31T02:26:36;7.00;;;4.32;;
27746;SDS011;15138;51.012;4.692;2023-05-31T02:29:04;5.93;;;3.22;;
27746;SDS011;15138;51.012;4.692;2023-05-31T02:31:33;8.85;;;4.25;;
27746;SDS011;15138;51.012;4.692;2023-05-31T02:34:02;5.47;;;3.60;;
27746;SDS011;15138;51.012;4.692;2023-05-31T02:36:30;8.00;;;4.18;;
27746;SDS011;15138;51.012;4.692;2023-05-31T02:38:59;4.82;;;3.58;;
27746;SDS011;15138;51.012;4.692;2023-05-31T02:41:27;5.55;;;2.75;;
27746;SDS011;15138;51.012;4.692;2023-05-31T02:43:55;6.88;;;3.80;;
27746;SDS011;15138;51.012;4.692;2023-05-31T02:46:23;6.07;;;3.15;;
27746;SDS011;15138;51.012;4.692;2023-05-31T02:48:51;6.20;;;4.78;;
27746;SDS011;15138;51.012;4.692;2023-05-31T02:51:21;4.82;;;3.40;;
27746;SDS011;15138;51.012;4.692;2023-05-31T02:53:49;7.95;;;4.20;;
27746;SDS011;15138;51.012;4.692;2023-05-31T02:56:17;4.30;;;3.75;;
27746;SDS011;15138;51.012;4.692;2023-05-31T02:58:46;5.47;;;3.55;;
27746;SDS011;15138;51.012;4.692;2023-05-31T03:01:14;7.90;;;3.75;;
27746;SDS011;15138;51.012;4.692;2023-05-31T03:03:42;5.05;;;3.83;;
27746;SDS011;15138;51.012;4.692;2023-05-31T03:06:11;6.13;;;2.95;;
27746;SDS011;15138;51.012;4.692;2023-05-31T03:08:44;6.03;;;3.80;;
27746;SDS011;15138;51.012;4.692;2023-05-31T03:11:13;4.63;;;3.40;;
27746;SDS011;15138;51.012;4.692;2023-05-31T03:13:41;3.80;;;2.90;;
27746;SDS011;15138;51.012;4.692;2023-05-31T03:16:09;4.00;;;2.92;;
27746;SDS011;15138;51.012;4.692;2023-05-31T03:18:37;4.10;;;3.30;;
27746;SDS011;15138;51.012;4.692;2023-05-31T03:21:06;7.63;;;4.35;;
27746;SDS011;15138;51.012;4.692;2023-05-31T03:23:34;4.40;;;3.42;;
27746;SDS011;15138;51.012;4.692;2023-05-31T03:26:03;6.50;;;4.10;;
27746;SDS011;15138;51.012;4.692;2023-05-31T03:28:32;5.03;;;3.60;;
27746;SDS011;15138;51.012;4.692;2023-05-31T03:31:00;5.95;;;3.60;;
27746;SDS011;15138;51.012;4.692;2023-05-31T03:33:28;5.22;;;3.92;;
27746;SDS011;15138;51.012;4.692;2023-05-31T03:35:57;10.48;;;5.68;;
27746;SDS011;15138;51.012;4.692;2023-05-31T03:38:26;6.70;;;3.88;;
27746;SDS011;15138;51.012;4.692;2023-05-31T03:40:55;7.82;;;4.25;;
27746;SDS011;15138;51.012;4.692;2023-05-31T03:43:24;4.95;;;3.92;;
27746;SDS011;15138;51.012;4.692;2023-05-31T03:45:53;6.05;;;4.45;;
27746;SDS011;15138;51.012;4.692;2023-05-31T03:48:21;9.00;;;6.45;;
27746;SDS011;15138;51.012;4.692;2023-05-31T03:50:49;6.95;;;5.22;;
27746;SDS011;15138;51.012;4.692;2023-05-31T03:53:17;7.28;;;4.00;;
27746;SDS011;15138;51.012;4.692;2023-05-31T03:55:45;5.65;;;3.83;;
27746;SDS011;15138;51.012;4.692;2023-05-31T03:58:14;6.25;;;4.60;;
27746;SDS011;15138;51.012;4.692;2023-05-31T04:00:43;8.75;;;5.22;;
27746;SDS011;15138;51.012;4.692;2023-05-31T04:03:11;8.38;;;5.93;;
27746;SDS011;15138;51.012;4.692;2023-05-31T04:05:40;7.40;;;4.40;;
27746;SDS011;15138;51.012;4.692;2023-05-31T04:08:09;8.55;;;4.90;;
27746;SDS011;15138;51.012;4.692;2023-05-31T04:10:37;5.63;;;4.05;;
27746;SDS011;15138;51.012;4.692;2023-05-31T04:13:05;6.25;;;4.38;;
27746;SDS011;15138;51.012;4.692;2023-05-31T04:15:33;4.93;;;3.45;;
27746;SDS011;15138;51.012;4.692;2023-05-31T04:18:03;9.57;;;5.50;;
27746;SDS011;15138;51.012;4.692;2023-05-31T04:20:31;6.75;;;4.80;;
27746;SDS011;15138;51.012;4.692;2023-05-31T04:23:00;9.27;;;5.70;;
27746;SDS011;15138;51.012;4.692;2023-05-31T04:25:28;7.15;;;5.40;;
27746;SDS011;15138;51.012;4.692;2023-05-31T04:27:57;8.80;;;5.32;;
27746;SDS011;15138;51.012;4.692;2023-05-31T04:30:25;8.73;;;4.85;;
27746;SDS011;15138;51.012;4.692;2023-05-31T04:32:54;7.68;;;4.60;;
27746;SDS011;15138;51.012;4.692;2023-05-31T04:35:25;10.20;;;5.80;;
27746;SDS011;15138;51.012;4.692;2023-05-31T04:37:55;6.47;;;4.68;;
27746;SDS011;15138;51.012;4.692;2023-05-31T04:40:26;12.65;;;7.63;;
27746;SDS011;15138;51.012;4.692;2023-05-31T04:42:58;10.00;;;7.13;;
27746;SDS011;15138;51.012;4.692;2023-05-31T04:45:27;6.93;;;4.75;;
27746;SDS011;15138;51.012;4.692;2023-05-31T04:47:56;5.85;;;4.07;;
27746;SDS011;15138;51.012;4.692;2023-05-31T04:50:25;7.03;;;4.55;;
27746;SDS011;15138;51.012;4.692;2023-05-31T04:52:56;7.85;;;4.97;;
27746;SDS011;15138;51.012;4.692;2023-05-31T04:55:24;10.45;;;7.85;;
27746;SDS011;15138;51.012;4.692;2023-05-31T04:57:53;9.23;;;6.22;;
27746;SDS011;15138;51.012;4.692;2023-05-31T05:00:21;9.35;;;5.47;;
27746;SDS011;15138;51.012;4.692;2023-05-31T05:02:49;6.60;;;4.40;;
27746;SDS011;15138;51.012;4.692;2023-05-31T05:05:17;6.30;;;4.47;;
27746;SDS011;15138;51.012;4.692;2023-05-31T05:07:47;9.15;;;6.93;;
27746;SDS011;15138;51.012;4.692;2023-05-31T05:10:15;10.38;;;6.07;;
27746;SDS011;15138;51.012;4.692;2023-05-31T05:12:44;10.57;;;7.00;;
27746;SDS011;15138;51.012;4.692;2023-05-31T05:15:12;9.32;;;7.32;;
27746;SDS011;15138;51.012;4.692;2023-05-31T05:17:40;9.93;;;6.97;;
27746;SDS011;15138;51.012;4.692;2023-05-31T05:20:11;7.75;;;5.78;;
27746;SDS011;15138;51.012;4.692;2023-05-31T05:25:10;8.80;;;4.95;;
27746;SDS011;15138;51.012;4.692;2023-05-31T05:27:38;11.43;;;5.10;;
27746;SDS011;15138;51.012;4.692;2023-05-31T05:30:07;6.88;;;4.75;;
27746;SDS011;15138;51.012;4.692;2023-05-31T05:32:35;11.07;;;6.43;;
27746;SDS011;15138;51.012;4.692;2023-05-31T05:35:04;7.78;;;4.80;;
27746;SDS011;15138;51.012;4.692;2023-05-31T05:37:33;9.32;;;6.40;;
27746;SDS011;15138;51.012;4.692;2023-05-31T05:40:01;9.27;;;7.38;;
27746;SDS011;15138;51.012;4.692;2023-05-31T05:42:34;15.20;;;9.05;;
27746;SDS011;15138;51.012;4.692;2023-05-31T05:45:04;14.45;;;8.30;;
27746;SDS011;15138;51.012;4.692;2023-05-31T05:47:33;10.40;;;6.88;;
27746;SDS011;15138;51.012;4.692;2023-05-31T05:50:02;8.55;;;6.30;;
27746;SDS011;15138;51.012;4.692;2023-05-31T05:52:31;11.85;;;7.90;;
27746;SDS011;15138;51.012;4.692;2023-05-31T05:54:59;11.13;;;7.68;;
27746;SDS011;15138;51.012;4.692;2023-05-31T05:57:27;12.32;;;7.18;;
27746;SDS011;15138;51.012;4.692;2023-05-31T05:59:57;10.55;;;7.05;;
27746;SDS011;15138;51.012;4.692;2023-05-31T06:02:26;10.13;;;7.22;;
27746;SDS011;15138;51.012;4.692;2023-05-31T06:04:54;8.45;;;6.10;;
27746;SDS011;15138;51.012;4.692;2023-05-31T06:07:23;11.93;;;7.10;;
27746;SDS011;15138;51.012;4.692;2023-05-31T06:09:52;12.50;;;6.57;;
27746;SDS011;15138;51.012;4.692;2023-05-31T06:12:20;8.73;;;5.78;;
27746;SDS011;15138;51.012;4.692;2023-05-31T06:14:48;13.15;;;7.00;;
27746;SDS011;15138;51.012;4.692;2023-05-31T06:17:18;16.83;;;9.90;;
27746;SDS011;15138;51.012;4.692;2023-05-31T06:19:47;12.50;;;7.82;;
27746;SDS011;15138;51.012;4.692;2023-05-31T06:22:15;10.75;;;6.90;;
27746;SDS011;15138;51.012;4.692;2023-05-31T06:24:43;13.80;;;6.13;;
27746;SDS011;15138;51.012;4.692;2023-05-31T06:27:12;16.45;;;7.53;;
27746;SDS011;15138;51.012;4.692;2023-05-31T06:29:41;12.25;;;7.53;;
27746;SDS011;15138;51.012;4.692;2023-05-31T06:32:09;9.85;;;6.95;;
27746;SDS011;15138;51.012;4.692;2023-05-31T06:34:38;10.02;;;7.05;;
27746;SDS011;15138;51.012;4.692;2023-05-31T06:37:07;14.48;;;8.80;;
27746;SDS011;15138;51.012;4.692;2023-05-31T06:39:36;11.43;;;7.47;;
27746;SDS011;15138;51.012;4.692;2023-05-31T06:42:04;10.05;;;7.07;;
27746;SDS011;15138;51.012;4.692;2023-05-31T06:44:32;13.40;;;8.27;;
27746;SDS011;15138;51.012;4.692;2023-05-31T06:47:17;11.50;;;7.63;;
27746;SDS011;15138;51.012;4.692;2023-05-31T06:49:47;18.13;;;9.45;;
27746;SDS011;15138;51.012;4.692;2023-05-31T06:52:15;12.75;;;7.43;;
27746;SDS011;15138;51.012;4.692;2023-05-31T06:54:43;15.20;;;9.80;;
27746;SDS011;15138;51.012;4.692;2023-05-31T06:57:11;12.77;;;7.03;;
27746;SDS011;15138;51.012;4.692;2023-05-31T06:59:40;17.83;;;9.02;;
27746;SDS011;15138;51.012;4.692;2023-05-31T07:02:08;12.30;;;8.48;;
27746;SDS011;15138;51.012;4.692;2023-05-31T07:04:36;11.68;;;7.20;;
27746;SDS011;15138;51.012;4.692;2023-05-31T07:07:06;12.75;;;6.82;;
27746;SDS011;15138;51.012;4.692;2023-05-31T07:09:34;11.65;;;7.18;;
27746;SDS011;15138;51.012;4.692;2023-05-31T07:12:03;12.18;;;7.65;;
27746;SDS011;15138;51.012;4.692;2023-05-31T07:14:31;13.35;;;7.20;;
27746;SDS011;15138;51.012;4.692;2023-05-31T07:16:59;8.23;;;3.03;;
27746;SDS011;15138;51.012;4.692;2023-05-31T07:19:28;12.60;;;8.00;;
27746;SDS011;15138;51.012;4.692;2023-05-31T07:21:56;9.63;;;5.90;;
27746;SDS011;15138;51.012;4.692;2023-05-31T07:24:26;12.70;;;7.93;;
27746;SDS011;15138;51.012;4.692;2023-05-31T07:26:54;12.52;;;7.03;;
27746;SDS011;15138;51.012;4.692;2023-05-31T07:29:23;20.45;;;8.50;;
27746;SDS011;15138;51.012;4.692;2023-05-31T07:31:51;11.38;;;7.68;;
27746;SDS011;15138;51.012;4.692;2023-05-31T07:34:20;13.80;;;6.28;;
27746;SDS011;15138;51.012;4.692;2023-05-31T07:36:48;12.02;;;8.02;;
27746;SDS011;15138;51.012;4.692;2023-05-31T07:39:16;13.13;;;7.18;;
27746;SDS011;15138;51.012;4.692;2023-05-31T07:41:46;10.18;;;6.28;;
27746;SDS011;15138;51.012;4.692;2023-05-31T07:44:15;12.40;;;6.25;;
27746;SDS011;15138;51.012;4.692;2023-05-31T07:46:44;13.57;;;7.03;;
27746;SDS011;15138;51.012;4.692;2023-05-31T07:49:12;8.88;;;4.70;;
27746;SDS011;15138;51.012;4.692;2023-05-31T07:51:41;12.73;;;6.90;;
27746;SDS011;15138;51.012;4.692;2023-05-31T07:54:09;14.77;;;7.72;;
27746;SDS011;15138;51.012;4.692;2023-05-31T07:56:37;11.68;;;7.70;;
27746;SDS011;15138;51.012;4.692;2023-05-31T07:59:08;14.75;;;7.10;;
27746;SDS011;15138;51.012;4.692;2023-05-31T08:01:36;15.70;;;5.88;;
27746;SDS011;15138;51.012;4.692;2023-05-31T08:04:05;17.27;;;7.90;;
27746;SDS011;15138;51.012;4.692;2023-05-31T08:06:34;12.98;;;7.60;;
27746;SDS011;15138;51.012;4.692;2023-05-31T08:09:03;15.38;;;8.35;;
27746;SDS011;15138;51.012;4.692;2023-05-31T08:11:33;16.38;;;7.85;;
27746;SDS011;15138;51.012;4.692;2023-05-31T08:14:02;10.43;;;5.13;;
27746;SDS011;15138;51.012;4.692;2023-05-31T08:16:32;11.45;;;6.15;;
27746;SDS011;15138;51.012;4.692;2023-05-31T08:19:03;11.93;;;7.03;;
27746;SDS011;15138;51.012;4.692;2023-05-31T08:21:32;15.48;;;6.72;;
27746;SDS011;15138;51.012;4.692;2023-05-31T08:24:03;14.88;;;6.10;;
27746;SDS011;15138;51.012;4.692;2023-05-31T08:26:32;12.80;;;5.53;;
27746;SDS011;15138;51.012;4.692;2023-05-31T08:29:01;10.18;;;5.28;;
27746;SDS011;15138;51.012;4.692;2023-05-31T08:31:29;10.20;;;4.55;;
27746;SDS011;15138;51.012;4.692;2023-05-31T08:33:59;11.48;;;7.22;;
27746;SDS011;15138;51.012;4.692;2023-05-31T08:36:27;12.25;;;6.72;;
27746;SDS011;15138;51.012;4.692;2023-05-31T08:38:55;7.53;;;3.95;;
27746;SDS011;15138;51.012;4.692;2023-05-31T08:41:24;10.68;;;6.05;;
27746;SDS011;15138;51.012;4.692;2023-05-31T08:43:55;15.18;;;6.65;;
27746;SDS011;15138;51.012;4.692;2023-05-31T08:46:26;11.63;;;5.53;;
27746;SDS011;15138;51.012;4.692;2023-05-31T08:48:56;10.63;;;5.97;;
27746;SDS011;15138;51.012;4.692;2023-05-31T08:51:30;13.07;;;5.55;;
27746;SDS011;15138;51.012;4.692;2023-05-31T08:54:00;15.32;;;6.82;;
27746;SDS011;15138;51.012;4.692;2023-05-31T08:56:29;9.85;;;5.53;;
27746;SDS011;15138;51.012;4.692;2023-05-31T08:58:58;10.40;;;5.13;;
27746;SDS011;15138;51.012;4.692;2023-05-31T09:01:27;11.43;;;5.03;;
27746;SDS011;15138;51.012;4.692;2023-05-31T09:03:55;10.30;;;5.13;;
27746;SDS011;15138;51.012;4.692;2023-05-31T09:06:23;10.52;;;5.65;;
27746;SDS011;15138;51.012;4.692;2023-05-31T09:08:53;14.50;;;5.88;;
27746;SDS011;15138;51.012;4.692;2023-05-31T09:11:22;13.40;;;6.25;;
27746;SDS011;15138;51.012;4.692;2023-05-31T09:13:52;11.88;;;5.47;;
27746;SDS011;15138;51.012;4.692;2023-05-31T09:16:21;14.35;;;6.78;;
27746;SDS011;15138;51.012;4.692;2023-05-31T09:18:59;10.77;;;5.03;;
27746;SDS011;15138;51.012;4.692;2023-05-31T09:21:29;12.88;;;4.15;;
27746;SDS011;15138;51.012;4.692;2023-05-31T09:23:58;10.70;;;5.43;;
27746;SDS011;15138;51.012;4.692;2023-05-31T09:26:27;9.35;;;4.63;;
27746;SDS011;15138;51.012;4.692;2023-05-31T09:28:56;7.70;;;4.28;;
27746;SDS011;15138;51.012;4.692;2023-05-31T09:31:25;17.70;;;5.20;;
27746;SDS011;15138;51.012;4.692;2023-05-31T09:33:53;10.57;;;3.45;;
27746;SDS011;15138;51.012;4.692;2023-05-31T09:36:25;12.25;;;5.50;;
27746;SDS011;15138;51.012;4.692;2023-05-31T09:38:59;9.27;;;4.38;;
27746;SDS011;15138;51.012;4.692;2023-05-31T09:41:30;12.60;;;4.93;;
27746;SDS011;15138;51.012;4.692;2023-05-31T09:43:59;6.40;;;3.40;;
27746;SDS011;15138;51.012;4.692;2023-05-31T09:46:27;10.45;;;5.15;;
27746;SDS011;15138;51.012;4.692;2023-05-31T09:48:56;12.80;;;3.90;;
27746;SDS011;15138;51.012;4.692;2023-05-31T09:51:26;9.38;;;5.18;;
27746;SDS011;15138;51.012;4.692;2023-05-31T09:53:54;12.32;;;5.30;;
27746;SDS011;15138;51.012;4.692;2023-05-31T09:56:25;9.98;;;4.55;;
27746;SDS011;15138;51.012;4.692;2023-05-31T09:58:55;10.55;;;4.47;;
27746;SDS011;15138;51.012;4.692;2023-05-31T10:01:24;7.88;;;3.53;;
27746;SDS011;15138;51.012;4.692;2023-05-31T10:03:53;9.93;;;3.72;;
27746;SDS011;15138;51.012;4.692;2023-05-31T10:06:21;6.70;;;3.30;;
27746;SDS011;15138;51.012;4.692;2023-05-31T10:08:51;9.57;;;2.67;;
27746;SDS011;15138;51.012;4.692;2023-05-31T10:11:19;10.65;;;3.92;;
27746;SDS011;15138;51.012;4.692;2023-05-31T10:13:55;9.00;;;4.40;;
27746;SDS011;15138;51.012;4.692;2023-05-31T10:16:26;12.25;;;4.53;;
27746;SDS011;15138;51.012;4.692;2023-05-31T10:19:01;10.35;;;4.15;;
27746;SDS011;15138;51.012;4.692;2023-05-31T10:21:32;8.10;;;3.72;;
27746;SDS011;15138;51.012;4.692;2023-05-31T10:24:06;8.00;;;3.03;;
27746;SDS011;15138;51.012;4.692;2023-05-31T10:26:38;13.35;;;4.20;;
27746;SDS011;15138;51.012;4.692;2023-05-31T10:29:13;6.80;;;2.80;;
27746;SDS011;15138;51.012;4.692;2023-05-31T10:31:46;9.80;;;2.58;;
27746;SDS011;15138;51.012;4.692;2023-05-31T10:34:18;8.73;;;2.85;;
27746;SDS011;15138;51.012;4.692;2023-05-31T10:36:49;11.63;;;3.35;;
27746;SDS011;15138;51.012;4.692;2023-05-31T10:39:21;10.82;;;3.33;;
27746;SDS011;15138;51.012;4.692;2023-05-31T10:44:29;10.98;;;3.53;;
27746;SDS011;15138;51.012;4.692;2023-05-31T10:47:03;15.48;;;3.70;;
27746;SDS011;15138;51.012;4.692;2023-05-31T10:49:36;13.05;;;3.70;;
27746;SDS011;15138;51.012;4.692;2023-05-31T10:52:08;10.35;;;2.80;;
27746;SDS011;15138;51.012;4.692;2023-05-31T10:54:37;7.22;;;3.00;;
27746;SDS011;15138;51.012;4.692;2023-05-31T10:57:06;6.28;;;2.50;;
27746;SDS011;15138;51.012;4.692;2023-05-31T10:59:41;11.77;;;3.10;;
27746;SDS011;15138;51.012;4.692;2023-05-31T11:04:40;7.35;;;2.58;;
27746;SDS011;15138;51.012;4.692;2023-05-31T11:07:16;7.55;;;3.05;;
27746;SDS011;15138;51.012;4.692;2023-05-31T11:09:54;7.30;;;2.60;;
27746;SDS011;15138;51.012;4.692;2023-05-31T11:12:31;8.98;;;2.70;;
27746;SDS011;15138;51.012;4.692;2023-05-31T11:15:03;5.88;;;2.90;;
27746;SDS011;15138;51.012;4.692;2023-05-31T11:17:38;5.90;;;2.65;;
27746;SDS011;15138;51.012;4.692;2023-05-31T11:20:11;8.40;;;3.28;;
27746;SDS011;15138;51.012;4.692;2023-05-31T11:22:43;9.23;;;2.60;;
27746;SDS011;15138;51.012;4.692;2023-05-31T11:25:17;10.60;;;2.80;;
27746;SDS011;15138;51.012;4.692;2023-05-31T11:27:51;9.75;;;2.38;;
27746;SDS011;15138;51.012;4.692;2023-05-31T11:30:37;7.25;;;2.60;;
27746;SDS011;15138;51.012;4.692;2023-05-31T11:33:16;9.63;;;2.75;;
27746;SDS011;15138;51.012;4.692;2023-05-31T11:38:14;7.13;;;2.80;;
27746;SDS011;15138;51.012;4.692;2023-05-31T11:40:42;10.95;;;2.45;;
27746;SDS011;15138;51.012;4.692;2023-05-31T11:43:10;6.20;;;2.60;;
27746;SDS011;15138;51.012;4.692;2023-05-31T11:45:45;10.35;;;2.97;;
27746;SDS011;15138;51.012;4.692;2023-05-31T11:51:13;11.73;;;3.10;;
27746;SDS011;15138;51.012;4.692;2023-05-31T11:53:41;9.13;;;3.15;;
27746;SDS011;15138;51.012;4.692;2023-05-31T11:56:10;7.45;;;2.22;;
27746;SDS011;15138;51.012;4.692;2023-05-31T11:58:45;5.82;;;2.45;;
27746;SDS011;15138;51.012;4.692;2023-05-31T12:01:14;6.75;;;2.60;;
27746;SDS011;15138;51.012;4.692;2023-05-31T12:03:43;4.18;;;2.10;;
27746;SDS011;15138;51.012;4.692;2023-05-31T12:06:11;6.82;;;2.40;;
27746;SDS011;15138;51.012;4.692;2023-05-31T12:08:39;6.97;;;2.92;;
27746;SDS011;15138;51.012;4.692;2023-05-31T12:11:08;8.55;;;2.60;;
27746;SDS011;15138;51.012;4.692;2023-05-31T12:13:36;9.45;;;3.08;;
27746;SDS011;15138;51.012;4.692;2023-05-31T12:16:04;12.90;;;2.67;;
27746;SDS011;15138;51.012;4.692;2023-05-31T12:18:34;4.97;;;2.38;;
27746;SDS011;15138;51.012;4.692;2023-05-31T12:21:06;8.43;;;2.42;;
27746;SDS011;15138;51.012;4.692;2023-05-31T12:23:50;11.05;;;2.58;;
27746;SDS011;15138;51.012;4.692;2023-05-31T12:26:19;10.20;;;2.80;;
27746;SDS011;15138;51.012;4.692;2023-05-31T12:28:49;8.77;;;2.55;;
27746;SDS011;15138;51.012;4.692;2023-05-31T12:31:21;5.05;;;1.50;;
27746;SDS011;15138;51.012;4.692;2023-05-31T12:34:05;9.38;;;2.47;;
27746;SDS011;15138;51.012;4.692;2023-05-31T12:36:41;7.82;;;2.80;;
27746;SDS011;15138;51.012;4.692;2023-05-31T12:39:10;10.75;;;2.97;;
27746;SDS011;15138;51.012;4.692;2023-05-31T12:41:43;8.23;;;2.42;;
27746;SDS011;15138;51.012;4.692;2023-05-31T12:44:12;12.98;;;3.00;;
27746;SDS011;15138;51.012;4.692;2023-05-31T12:46:42;10.00;;;2.38;;
27746;SDS011;15138;51.012;4.692;2023-05-31T12:49:14;7.80;;;2.38;;
27746;SDS011;15138;51.012;4.692;2023-05-31T12:51:46;10.73;;;2.63;;
27746;SDS011;15138;51.012;4.692;2023-05-31T12:54:15;5.60;;;2.47;;
27746;SDS011;15138;51.012;4.692;2023-05-31T12:56:44;9.57;;;2.55;;
27746;SDS011;15138;51.012;4.692;2023-05-31T12:59:12;10.13;;;2.60;;
27746;SDS011;15138;51.012;4.692;2023-05-31T13:01:41;10.13;;;2.92;;
27746;SDS011;15138;51.012;4.692;2023-05-31T13:04:09;10.32;;;2.90;;
27746;SDS011;15138;51.012;4.692;2023-05-31T13:06:39;7.80;;;2.38;;
27746;SDS011;15138;51.012;4.692;2023-05-31T13:09:08;13.60;;;2.85;;
27746;SDS011;15138;51.012;4.692;2023-05-31T13:11:37;6.65;;;1.85;;
27746;SDS011;15138;51.012;4.692;2023-05-31T13:14:06;9.35;;;2.22;;
27746;SDS011;15138;51.012;4.692;2023-05-31T13:16:36;9.52;;;2.47;;
27746;SDS011;15138;51.012;4.692;2023-05-31T13:19:06;8.88;;;2.47;;
27746;SDS011;15138;51.012;4.692;2023-05-31T13:21:35;8.48;;;1.75;;
27746;SDS011;15138;51.012;4.692;2023-05-31T13:24:06;7.00;;;2.10;;
27746;SDS011;15138;51.012;4.692;2023-05-31T13:26:36;13.55;;;2.72;;
27746;SDS011;15138;51.012;4.692;2023-05-31T13:29:04;5.72;;;2.10;;
27746;SDS011;15138;51.012;4.692;2023-05-31T13:31:32;8.23;;;2.28;;
27746;SDS011;15138;51.012;4.692;2023-05-31T13:34:01;8.85;;;2.00;;
27746;SDS011;15138;51.012;4.692;2023-05-31T13:36:29;6.00;;;2.40;;
27746;SDS011;15138;51.012;4.692;2023-05-31T13:38:57;6.57;;;2.22;;
27746;SDS011;15138;51.012;4.692;2023-05-31T13:41:27;9.48;;;2.17;;
27746;SDS011;15138;51.012;4.692;2023-05-31T13:43:56;9.45;;;2.25;;
27746;SDS011;15138;51.012;4.692;2023-05-31T13:46:24;6.38;;;2.20;;
27746;SDS011;15138;51.012;4.692;2023-05-31T13:48:53;6.78;;;2.22;;
27746;SDS011;15138;51.012;4.692;2023-05-31T13:51:21;8.38;;;2.05;;
27746;SDS011;15138;51.012;4.692;2023-05-31T13:53:49;5.65;;;2.20;;
27746;SDS011;15138;51.012;4.692;2023-05-31T13:56:17;8.60;;;2.00;;
27746;SDS011;15138;51.012;4.692;2023-05-31T13:58:47;9.02;;;2.10;;
27746;SDS011;15138;51.012;4.692;2023-05-31T14:01:15;9.23;;;2.38;;
27746;SDS011;15138;51.012;4.692;2023-05-31T14:03:43;8.68;;;2.38;;
27746;SDS011;15138;51.012;4.692;2023-05-31T14:06:14;9.60;;;2.50;;
27746;SDS011;15138;51.012;4.692;2023-05-31T14:08:42;13.27;;;2.58;;
27746;SDS011;15138;51.012;4.692;2023-05-31T14:11:12;7.15;;;2.05;;
27746;SDS011;15138;51.012;4.692;2023-05-31T14:13:40;5.22;;;2.15;;
27746;SDS011;15138;51.012;4.692;2023-05-31T14:16:10;9.10;;;2.10;;
27746;SDS011;15138;51.012;4.692;2023-05-31T14:18:38;6.20;;;2.58;;
27746;SDS011;15138;51.012;4.692;2023-05-31T14:21:06;7.28;;;2.42;;
27746;SDS011;15138;51.012;4.692;2023-05-31T14:23:34;4.78;;;1.90;;
27746;SDS011;15138;51.012;4.692;2023-05-31T14:26:02;9.13;;;2.15;;
27746;SDS011;15138;51.012;4.692;2023-05-31T14:28:30;9.50;;;2.40;;
27746;SDS011;15138;51.012;4.692;2023-05-31T14:30:59;6.03;;;2.22;;
27746;SDS011;15138;51.012;4.692;2023-05-31T14:33:29;5.47;;;2.00;;
27746;SDS011;15138;51.012;4.692;2023-05-31T14:35:57;14.10;;;2.72;;
27746;SDS011;15138;51.012;4.692;2023-05-31T14:38:26;7.20;;;2.40;;
27746;SDS011;15138;51.012;4.692;2023-05-31T14:41:01;6.38;;;2.30;;
27746;SDS011;15138;51.012;4.692;2023-05-31T14:43:29;8.43;;;2.03;;
27746;SDS011;15138;51.012;4.692;2023-05-31T14:45:57;15.10;;;2.13;;
27746;SDS011;15138;51.012;4.692;2023-05-31T14:48:26;5.28;;;2.35;;
27746;SDS011;15138;51.012;4.692;2023-05-31T14:50:55;5.80;;;2.22;;
27746;SDS011;15138;51.012;4.692;2023-05-31T14:53:23;9.15;;;2.40;;
27746;SDS011;15138;51.012;4.692;2023-05-31T14:55:52;8.45;;;2.20;;
27746;SDS011;15138;51.012;4.692;2023-05-31T14:58:40;4.32;;;1.92;;
27746;SDS011;15138;51.012;4.692;2023-05-31T15:01:09;8.70;;;2.35;;
27746;SDS011;15138;51.012;4.692;2023-05-31T15:03:37;8.35;;;2.10;;
27746;SDS011;15138;51.012;4.692;2023-05-31T15:06:07;7.70;;;2.50;;
27746;SDS011;15138;51.012;4.692;2023-05-31T15:08:35;7.57;;;2.42;;
27746;SDS011;15138;51.012;4.692;2023-05-31T15:11:04;7.57;;;2.90;;